Accueil
METAR-TAF:

METAR-TAF

Aéroports :

Andora, Italie

Capo Mele

latitude: 43-57N, longitude: 008-10E, altitude: 220 m

Observation

Le bulletin a été fait il y a 51 minutes, à 20:55 UTC
Vent 5 kt de est/sud-est
Température 14°C
Humidité 94%
Pression 1019 hPa
Visibilité 10 km ou plus
Nuages épars à une hauteur de 2000 ft

METAR: LIMU 232055Z 11005KT 9999 SCT020 14/13 Q1019 RMK SCT QUK / QUL / VIS MAR 20 KM VIS MIN 9999

Heure: 23:46 (21:46 UTC)


TAF: absent

Observations et prévisions météorologiques de plus de 4000 aéroports (messages METAR et TAF).

Les stations disponibles sont représentées par des disques jaunes et rouges sur la carte.

Passer la souris dessus pour voir le nom de la station.

Cliquer dessus pour voir les observations et prévisions météorologiques.

Pour changer de carte: cliquez sur les boutons verts avec une croix noire pour zoomer, sur le bouton vert avec un tiret pour effectuer un zoom arrière, ou sur les flèches vertes pour les cartes adjacentes.


METAR-TAF: